Time;durP1;ratioP1;P1;durP2;ratioP2;P2;SDS_P1;SDS_P2;PMS_P1;PMS_P2;Temp;Humidity;BMP_temperature;BMP_pressure;BME280_temperature;BME280_humidity;BME280_pressure;Samples;Min_cycle;Max_cycle;Signal;HPM_P1;HPM_P2
2021/12/09 00:09:45;;;;;;;73.53;11.43;;;;;;;7.09;100.00;99679.47;31344501;28;20061;-84
2021/12/09 00:24:47;;;;;;;86.30;12.87;;;;;;;7.17;100.00;99687.06;31304847;28;20131;-82
2021/12/09 00:39:51;;;;;;;56.13;10.43;;;;;;;7.23;100.00;99689.34;31296373;28;20059;-82
2021/12/09 00:54:55;;;;;;;33.13;9.83;;;;;;;7.38;100.00;99696.06;31295347;28;20420;-76
2021/12/09 01:09:58;;;;;;;45.40;10.37;;;;;;;7.52;100.00;99706.69;31295048;28;20045;-75
2021/12/09 01:24:59;;;;;;;33.73;10.30;;;;;;;7.57;100.00;99708.94;31292215;28;20044;-75
2021/12/09 01:40:03;;;;;;;39.17;9.27;;;;;;;7.59;100.00;99730.91;31304128;28;20064;-76
2021/12/09 01:55:08;;;;;;;59.10;10.60;;;;;;;7.65;100.00;99742.03;31280261;28;20037;-76
2021/12/09 02:10:14;;;;;;;68.50;10.30;;;;;;;7.67;100.00;99756.66;31320939;28;20049;-76
2021/12/09 02:25:18;;;;;;;39.43;10.07;;;;;;;7.68;100.00;99758.19;31308859;28;20045;-77
2021/12/09 02:40:19;;;;;;;27.50;10.10;;;;;;;7.67;100.00;99777.50;31316522;28;20305;-75
2021/12/09 02:55:22;;;;;;;25.63;8.97;;;;;;;7.65;100.00;99807.63;31304927;28;20061;-77
2021/12/09 03:10:25;;;;;;;21.97;7.77;;;;;;;7.55;100.00;99813.94;31308472;28;20122;-76
2021/12/09 03:25:27;;;;;;;16.67;6.60;;;;;;;7.52;100.00;99830.94;31297252;28;20052;-76
2021/12/09 03:40:29;;;;;;;19.50;7.77;;;;;;;7.51;100.00;99851.78;31300960;28;20053;-76
2021/12/09 03:55:31;;;;;;;30.13;12.03;;;;;;;7.49;100.00;99870.34;31293303;28;20083;-75
2021/12/09 04:10:34;;;;;;;24.73;10.50;;;;;;;7.46;100.00;99878.47;31295822;28;20048;-75
2021/12/09 04:25:36;;;;;;;15.20;5.27;;;;;;;7.37;100.00;99899.78;31288582;28;20056;-75
2021/12/09 04:40:38;;;;;;;13.63;6.10;;;;;;;7.33;100.00;99915.22;31281507;28;20096;-76
2021/12/09 04:55:40;;;;;;;16.27;7.87;;;;;;;7.28;100.00;99931.88;31293687;28;20041;-77
2021/12/09 05:11:16;;;;;;;16.47;7.10;;;;;;;7.18;100.00;99950.47;31290955;28;20102;-77
2021/12/09 05:26:15;;;;;;;6.10;2.43;;;;;;;7.06;100.00;99966.41;31293141;28;20055;-77
2021/12/09 05:41:20;;;;;;;2.93;1.33;;;;;;;7.09;100.00;99995.28;31328739;28;20518;-77
2021/12/09 05:56:22;;;;;;;4.70;2.43;;;;;;;6.89;100.00;100011.22;31330138;28;20553;-77
2021/12/09 06:11:26;;;;;;;2.97;1.80;;;;;;;6.88;100.00;100049.38;31338161;28;20059;-78
2021/12/09 06:26:30;;;;;;;24.87;9.13;;;;;;;6.89;100.00;100049.00;31365363;28;20143;-77
2021/12/09 06:41:32;;;;;;;7.67;4.20;;;;;;;6.80;100.00;100072.97;31349169;28;20091;-75
2021/12/09 06:56:35;;;;;;;7.30;3.53;;;;;;;6.78;100.00;100080.69;31355037;28;20053;-74
2021/12/09 07:11:37;;;;;;;6.60;3.30;;;;;;;6.87;100.00;100097.19;31302673;28;20054;-72
2021/12/09 07:26:39;;;;;;;7.83;3.23;;;;;;;6.86;100.00;100111.84;31301042;28;20049;-72
2021/12/09 07:41:41;;;;;;;5.00;2.63;;;;;;;6.85;100.00;100132.66;31310115;28;20046;-73
2021/12/09 07:56:43;;;;;;;10.50;3.10;;;;;;;6.95;100.00;100138.41;31336631;28;20062;-70
2021/12/09 08:11:45;;;;;;;7.13;2.90;;;;;;;6.97;100.00;100161.16;31324752;28;20045;-73
2021/12/09 08:26:47;;;;;;;6.70;3.67;;;;;;;7.03;100.00;100169.63;31371853;28;20140;-71
2021/12/09 08:41:49;;;;;;;12.03;3.47;;;;;;;6.94;100.00;100169.25;31355564;28;20053;-72
2021/12/09 08:56:51;;;;;;;12.53;5.87;;;;;;;7.05;100.00;100159.22;31307757;28;20503;-71
2021/12/09 09:11:54;;;;;;;17.87;9.50;;;;;;;7.17;100.00;100162.22;31306476;28;20051;-72
2021/12/09 09:26:56;;;;;;;7.63;4.00;;;;;;;7.11;100.00;100169.19;31331572;28;20053;-72
2021/12/09 09:42:58;;;;;;;7.77;4.17;;;;;;;7.01;100.00;100172.72;31329659;28;20049;-73
2021/12/09 09:57:23;;;;;;;19.90;8.67;;;;;;;7.02;100.00;100171.56;31344852;28;20057;-72
2021/12/09 10:12:25;;;;;;;12.70;6.87;;;;;;;7.01;100.00;100166.53;31335411;28;20061;-73
2021/12/09 10:27:34;;;;;;;13.73;6.37;;;;;;;6.84;100.00;100181.66;31337992;28;20045;-73
2021/12/09 10:42:43;;;;;;;10.97;5.50;;;;;;;6.73;100.00;100175.50;31313793;28;20046;-70
2021/12/09 10:57:53;;;;;;;16.50;7.73;;;;;;;6.73;100.00;100195.16;31311500;28;20065;-71
2021/12/09 11:12:58;;;;;;;20.63;8.17;;;;;;;6.74;100.00;100195.94;31312056;28;20076;-72
2021/12/09 11:28:20;;;;;;;17.73;6.33;;;;;;;6.58;100.00;100222.56;31301760;28;20057;-73
2021/12/09 11:43:25;;;;;;;12.83;5.40;;;;;;;6.65;100.00;100219.84;31314998;28;20051;-72
2021/12/09 11:58:33;;;;;;;12.90;5.00;;;;;;;6.60;100.00;100241.81;31347003;28;20117;-72
2021/12/09 12:13:51;;;;;;;10.80;4.83;;;;;;;6.58;100.00;100254.94;31307535;28;20059;-72
2021/12/09 12:44:17;;;;;;;16.10;6.80;;;;;;;6.63;100.00;100297.66;31305609;28;20140;-72
2021/12/09 12:59:23;;;;;;;10.97;5.50;;;;;;;6.60;100.00;100304.63;31358193;28;20049;-73
2021/12/09 13:14:30;;;;;;;16.53;6.43;;;;;;;6.61;100.00;100319.66;31312382;28;20685;-73
2021/12/09 13:29:44;;;;;;;15.50;6.37;;;;;;;6.60;100.00;100349.72;31288245;28;20495;-73
2021/12/09 14:00:14;;;;;;;14.43;6.40;;;;;;;6.54;100.00;100399.81;31336334;28;20119;-73
2021/12/09 14:15:33;;;;;;;17.27;8.13;;;;;;;6.68;100.00;100416.78;31349645;28;20049;-73
2021/12/09 14:30:35;;;;;;;21.63;7.30;;;;;;;6.61;100.00;100437.59;31348544;28;20463;-73
2021/12/09 14:46:04;;;;;;;16.93;7.53;;;;;;;6.52;100.00;100445.25;31338830;28;20053;-72
2021/12/09 15:01:16;;;;;;;19.33;7.73;;;;;;;6.44;100.00;100456.03;31365310;28;20564;-74
2021/12/09 15:16:22;;;;;;;20.03;7.33;;;;;;;6.42;100.00;100479.13;31324798;28;20083;-74
2021/12/09 15:31:24;;;;;;;21.73;8.20;;;;;;;6.47;100.00;100481.47;31338004;28;20057;-74
2021/12/09 15:46:26;;;;;;;23.40;8.27;;;;;;;6.38;100.00;100484.50;31338454;28;20100;-75
2021/12/09 16:01:33;;;;;;;24.20;8.93;;;;;;;6.27;100.00;100489.09;31328204;28;20056;-74
2021/12/09 16:16:38;;;;;;;31.87;12.50;;;;;;;6.31;100.00;100524.94;31319400;28;20049;-75
2021/12/09 16:31:40;;;;;;;26.13;11.57;;;;;;;6.31;100.00;100527.66;31309058;28;20430;-74
2021/12/09 16:46:45;;;;;;;20.87;9.20;;;;;;;6.33;100.00;100540.75;31331186;28;20048;-74
2021/12/09 17:01:54;;;;;;;27.47;10.33;;;;;;;6.38;100.00;100538.44;31318730;28;20052;-72
2021/12/09 17:17:00;;;;;;;30.67;12.27;;;;;;;6.46;100.00;100550.81;31330585;28;20533;-72
2021/12/09 17:32:03;;;;;;;26.87;11.20;;;;;;;6.24;100.00;100565.34;31312843;28;20548;-72
2021/12/09 17:47:10;;;;;;;32.40;12.57;;;;;;;6.28;100.00;100573.47;31298753;28;20057;-73
2021/12/09 18:02:13;;;;;;;28.53;10.77;;;;;;;6.38;100.00;100578.88;31318015;28;20434;-75
2021/12/09 18:17:21;;;;;;;25.60;10.33;;;;;;;6.36;100.00;100592.00;31307429;28;20062;-74
2021/12/09 18:32:23;;;;;;;23.03;9.23;;;;;;;6.23;100.00;100596.16;31350524;28;20049;-74
2021/12/09 18:47:25;;;;;;;21.23;9.07;;;;;;;6.23;100.00;100628.50;31322645;28;20057;-73
2021/12/09 19:02:27;;;;;;;37.53;13.93;;;;;;;6.17;100.00;100635.38;31293061;28;20140;-72
2021/12/09 19:17:41;;;;;;;26.80;11.97;;;;;;;6.21;100.00;100646.97;31289250;28;20059;-71
2021/12/09 19:32:44;;;;;;;33.47;13.80;;;;;;;6.19;100.00;100670.84;31309426;28;20137;-74
2021/12/09 19:47:47;;;;;;;30.33;14.03;;;;;;;6.12;100.00;100678.88;31325021;28;20045;-76
2021/12/09 20:02:49;;;;;;;33.23;13.83;;;;;;;6.07;100.00;100685.41;31326098;28;20538;-72
2021/12/09 20:17:51;;;;;;;28.97;13.13;;;;;;;5.99;100.00;100697.25;31310097;28;20521;-73
2021/12/09 20:32:55;;;;;;;41.93;17.47;;;;;;;5.89;100.00;100721.44;31302914;28;20049;-73
2021/12/09 20:47:59;;;;;;;31.60;13.93;;;;;;;5.89;100.00;100726.81;31294860;28;20049;-72
2021/12/09 21:03:01;;;;;;;21.80;11.53;;;;;;;5.90;100.00;100739.16;31282617;28;20049;-73
2021/12/09 21:18:20;;;;;;;32.67;13.10;;;;;;;5.90;100.00;100742.63;31285689;28;20049;-72
2021/12/09 21:33:32;;;;;;;40.47;16.63;;;;;;;5.86;100.00;100754.47;31298222;28;20634;-73
2021/12/09 21:48:34;;;;;;;37.93;14.73;;;;;;;5.82;100.00;100763.28;31287749;28;20049;-73
2021/12/09 22:03:36;;;;;;;31.33;13.80;;;;;;;5.83;100.00;100756.75;31292550;28;20050;-73
2021/12/09 22:18:44;;;;;;;32.80;14.73;;;;;;;5.72;100.00;100760.47;31253190;28;20060;-73
2021/12/09 22:33:47;;;;;;;37.30;13.13;;;;;;;5.81;100.00;100763.66;31288196;28;20045;-72
2021/12/09 22:48:48;;;;;;;25.47;11.23;;;;;;;5.75;100.00;100775.91;31282185;28;20045;-72
2021/12/09 23:03:58;;;;;;;34.43;15.97;;;;;;;5.76;100.00;100786.31;31270053;28;20047;-72
2021/12/09 23:19:00;;;;;;;51.23;19.97;;;;;;;5.82;100.00;100786.75;31270287;28;20527;-72
2021/12/09 23:34:03;;;;;;;48.67;18.83;;;;;;;5.75;100.00;100800.16;31263285;28;20598;-74
2021/12/09 23:49:09;;;;;;;46.03;19.07;;;;;;;5.80;100.00;100800.59;31261061;28;20063;-72
